Time;durP1;ratioP1;P1;durP2;ratioP2;P2;SDS_P1;SDS_P2;PMS_P1;PMS_P2;Temp;Humidity;BMP_temperature;BMP_pressure;BME280_temperature;BME280_humidity;BME280_pressure;Samples;Min_cycle;Max_cycle;Signal;HPM_P1;HPM_P2
2023/07/29 00:01:08;;;;;;;4.00;2.13;;;19.70;99.90;;;;;;5063482;28;20175;-70
2023/07/29 00:03:34;;;;;;;2.27;1.77;;;19.70;99.90;;;;;;5062151;28;20174;-69
2023/07/29 00:05:59;;;;;;;2.50;1.57;;;19.80;99.90;;;;;;5064377;28;20190;-68
2023/07/29 00:08:25;;;;;;;1.63;1.53;;;19.80;99.90;;;;;;5060576;28;20166;-67
2023/07/29 00:10:50;;;;;;;2.80;2.10;;;19.70;99.90;;;;;;5062382;28;20224;-68
2023/07/29 00:13:16;;;;;;;2.70;1.90;;;19.80;99.90;;;;;;5060368;28;20190;-68
2023/07/29 00:15:42;;;;;;;2.50;1.60;;;19.90;99.90;;;;;;5064104;28;20245;-68
2023/07/29 00:18:07;;;;;;;2.20;1.83;;;19.80;99.90;;;;;;5062607;28;20270;-66
2023/07/29 00:20:33;;;;;;;1.93;1.50;;;19.80;99.90;;;;;;5061388;28;20177;-68
2023/07/29 00:22:59;;;;;;;2.80;2.00;;;19.80;99.90;;;;;;5059401;28;20227;-67
2023/07/29 00:25:25;;;;;;;2.13;1.70;;;19.80;99.90;;;;;;5062673;28;20197;-68
2023/07/29 00:27:50;;;;;;;3.20;1.70;;;19.90;99.90;;;;;;5064628;28;20404;-68
2023/07/29 00:30:16;;;;;;;1.50;1.40;;;19.90;99.90;;;;;;5061260;28;20170;-69
2023/07/29 00:32:42;;;;;;;2.30;1.83;;;19.80;99.90;;;;;;5063820;28;20209;-68
2023/07/29 00:35:08;;;;;;;1.80;1.70;;;19.80;99.90;;;;;;5061763;28;20198;-69
2023/07/29 00:37:33;;;;;;;3.20;1.70;;;19.80;99.90;;;;;;5064453;28;20245;-68
2023/07/29 00:39:59;;;;;;;2.10;1.90;;;19.80;99.90;;;;;;5061884;28;20398;-68
2023/07/29 00:42:25;;;;;;;2.50;1.60;;;19.90;99.90;;;;;;5064899;28;20224;-68
2023/07/29 00:44:50;;;;;;;1.80;1.53;;;19.90;99.90;;;;;;5061632;28;20168;-68
2023/07/29 00:47:16;;;;;;;3.67;1.63;;;19.90;99.90;;;;;;5063392;28;20405;-68
2023/07/29 00:49:44;;;;;;;2.80;1.73;;;20.00;99.90;;;;;;5062664;28;20507;-69
2023/07/29 00:52:12;;;;;;;1.80;1.70;;;19.90;99.90;;;;;;5064091;28;20420;-69
2023/07/29 00:54:41;;;;;;;1.80;1.60;;;19.90;99.90;;;;;;5061187;28;20904;-69
2023/07/29 00:57:10;;;;;;;3.00;1.80;;;20.00;99.90;;;;;;5061087;28;20417;-68
2023/07/29 00:59:36;;;;;;;4.67;2.20;;;20.00;99.90;;;;;;5062240;28;20405;-68
2023/07/29 01:02:02;;;;;;;1.60;1.47;;;20.00;99.90;;;;;;5060624;28;20523;-69
2023/07/29 01:04:28;;;;;;;2.27;2.07;;;20.00;99.90;;;;;;5063905;28;20533;-68
2023/07/29 01:07:12;;;;;;;1.93;1.60;;;20.00;99.90;;;;;;5061485;28;20952;-68
2023/07/29 01:09:50;;;;;;;3.53;2.17;;;20.00;99.90;;;;;;5057098;28;20165;-68
2023/07/29 01:12:26;;;;;;;2.50;1.57;;;20.00;99.90;;;;;;5060643;28;20418;-68
2023/07/29 01:15:16;;;;;;;2.60;1.80;;;19.90;99.90;;;;;;5057991;28;20393;-68
2023/07/29 01:17:46;;;;;;;2.87;2.03;;;19.90;99.90;;;;;;5064447;28;20401;-69
2023/07/29 01:20:15;;;;;;;2.00;1.80;;;19.80;99.90;;;;;;5063549;28;20397;-69
2023/07/29 01:22:42;;;;;;;2.20;2.00;;;19.80;99.90;;;;;;5066185;28;20440;-69
2023/07/29 01:25:08;;;;;;;2.70;1.67;;;19.80;99.90;;;;;;5060468;28;20440;-69
2023/07/29 01:27:33;;;;;;;3.27;1.60;;;19.90;99.90;;;;;;5064973;28;20397;-68
2023/07/29 01:30:00;;;;;;;3.77;1.90;;;19.80;99.90;;;;;;5067258;28;20454;-69
2023/07/29 01:32:28;;;;;;;2.23;1.83;;;19.80;99.90;;;;;;5067000;28;20182;-69
2023/07/29 01:35:07;;;;;;;3.93;2.17;;;19.90;99.90;;;;;;5066165;28;20449;-69
2023/07/29 01:37:36;;;;;;;3.50;2.20;;;19.90;99.90;;;;;;5060772;28;20871;-69
2023/07/29 01:40:02;;;;;;;2.90;1.90;;;19.90;99.90;;;;;;5066871;28;20410;-69
2023/07/29 01:42:28;;;;;;;2.20;2.00;;;20.00;99.90;;;;;;5063035;28;20428;-69
2023/07/29 01:44:54;;;;;;;1.73;1.30;;;20.00;99.90;;;;;;5067398;28;20404;-69
2023/07/29 01:47:22;;;;;;;2.77;1.57;;;20.00;99.90;;;;;;5064819;28;20473;-69
2023/07/29 01:49:47;;;;;;;2.30;1.80;;;19.90;99.90;;;;;;5066031;28;20189;-69
2023/07/29 01:52:13;;;;;;;2.03;1.67;;;20.00;99.90;;;;;;5064698;28;20423;-69
2023/07/29 01:54:38;;;;;;;4.23;1.60;;;20.00;99.90;;;;;;5067440;28;20166;-68
2023/07/29 01:57:04;;;;;;;2.70;1.80;;;20.00;99.90;;;;;;5058635;28;20166;-68
2023/07/29 01:59:30;;;;;;;2.27;1.87;;;20.00;99.90;;;;;;5066472;28;20158;-69
2023/07/29 02:01:55;;;;;;;2.30;1.70;;;20.00;99.90;;;;;;5064333;28;20229;-70
2023/07/29 02:04:21;;;;;;;1.53;1.43;;;20.10;99.90;;;;;;5064961;28;20253;-69
2023/07/29 02:06:46;;;;;;;2.73;1.60;;;20.00;99.90;;;;;;5064773;28;20225;-70
2023/07/29 02:09:12;;;;;;;1.60;1.30;;;20.00;99.90;;;;;;5067145;28;20169;-69
2023/07/29 02:11:37;;;;;;;1.67;1.47;;;19.80;99.90;;;;;;5064608;28;20186;-73
2023/07/29 02:14:03;;;;;;;2.10;1.90;;;19.70;99.90;;;;;;5064284;28;20165;-69
2023/07/29 02:16:28;;;;;;;2.73;1.60;;;19.80;99.90;;;;;;5064146;28;20171;-69
2023/07/29 02:18:54;;;;;;;3.03;1.37;;;19.70;99.90;;;;;;5066671;28;20313;-69
2023/07/29 02:21:20;;;;;;;2.17;1.50;;;19.50;99.90;;;;;;5065665;28;20190;-69
2023/07/29 02:23:45;;;;;;;2.13;1.93;;;19.50;99.90;;;;;;5066118;28;20518;-69
2023/07/29 02:26:11;;;;;;;2.30;1.70;;;19.50;99.90;;;;;;5059791;28;20190;-69
2023/07/29 02:28:37;;;;;;;2.80;1.80;;;19.60;99.90;;;;;;5060847;28;20261;-68
2023/07/29 02:31:10;;;;;;;1.47;1.37;;;19.70;99.90;;;;;;5064076;28;20171;-71
2023/07/29 02:33:36;;;;;;;2.50;1.63;;;19.70;99.90;;;;;;5062986;28;20194;-69
2023/07/29 02:36:01;;;;;;;1.67;1.53;;;19.80;99.90;;;;;;5066387;28;20462;-69
2023/07/29 02:38:27;;;;;;;2.40;2.20;;;19.90;99.90;;;;;;5064663;28;20628;-69
2023/07/29 02:40:52;;;;;;;1.93;1.27;;;19.80;99.90;;;;;;5063659;28;20166;-69
2023/07/29 02:43:18;;;;;;;1.40;1.30;;;19.90;99.90;;;;;;5063466;28;20617;-69
2023/07/29 02:45:44;;;;;;;1.93;1.50;;;19.90;99.90;;;;;;5064874;28;20221;-69
2023/07/29 02:48:09;;;;;;;3.27;2.10;;;19.90;99.90;;;;;;5065526;28;20170;-69
2023/07/29 02:50:35;;;;;;;2.10;1.80;;;19.80;99.90;;;;;;5060032;28;20246;-69
2023/07/29 02:53:01;;;;;;;2.73;2.10;;;19.90;99.90;;;;;;5065240;28;20182;-69
2023/07/29 02:55:27;;;;;;;3.13;1.60;;;19.80;99.90;;;;;;5063059;28;20216;-71
2023/07/29 02:57:52;;;;;;;2.97;1.97;;;19.80;99.90;;;;;;5059303;28;20417;-69
2023/07/29 03:00:18;;;;;;;2.70;1.90;;;19.80;99.90;;;;;;5059693;28;20175;-69
2023/07/29 03:02:43;;;;;;;3.40;2.03;;;19.60;99.90;;;;;;5061646;28;20673;-67
2023/07/29 03:05:09;;;;;;;5.13;1.80;;;19.70;99.90;;;;;;5065478;28;20668;-69
2023/07/29 03:07:35;;;;;;;3.97;2.13;;;19.80;99.90;;;;;;5062998;28;20171;-67
2023/07/29 03:10:00;;;;;;;2.33;1.60;;;19.70;99.90;;;;;;5064218;28;20167;-69
2023/07/29 03:12:26;;;;;;;2.40;2.20;;;19.70;99.90;;;;;;5061866;28;20187;-70
2023/07/29 03:14:52;;;;;;;1.80;1.70;;;19.70;99.90;;;;;;5065838;28;20686;-69
2023/07/29 03:17:17;;;;;;;2.03;1.47;;;19.70;99.90;;;;;;5063840;28;20405;-68
2023/07/29 03:19:43;;;;;;;1.90;1.70;;;19.70;99.90;;;;;;5062851;28;20171;-68
2023/07/29 03:22:08;;;;;;;3.00;2.10;;;19.70;99.90;;;;;;5064386;28;20202;-68
2023/07/29 03:24:34;;;;;;;2.30;1.53;;;19.70;99.90;;;;;;5065109;28;20177;-69
2023/07/29 03:27:00;;;;;;;2.10;1.80;;;19.70;99.90;;;;;;5058397;28;20706;-69
2023/07/29 03:29:25;;;;;;;3.10;1.73;;;19.70;99.90;;;;;;5062505;28;20644;-69
2023/07/29 03:31:51;;;;;;;2.63;1.80;;;19.50;99.90;;;;;;5064383;28;20179;-68
2023/07/29 03:34:16;;;;;;;3.20;1.97;;;19.50;99.90;;;;;;5064837;28;20179;-69
2023/07/29 03:36:42;;;;;;;1.73;1.40;;;19.40;99.90;;;;;;5063989;28;20166;-69
2023/07/29 03:39:07;;;;;;;1.67;1.33;;;19.50;99.90;;;;;;5061832;28;20228;-69
2023/07/29 03:41:33;;;;;;;2.40;1.77;;;19.40;99.90;;;;;;5062956;28;20190;-69
2023/07/29 03:43:59;;;;;;;2.33;1.37;;;19.50;99.90;;;;;;5063809;28;20215;-68
2023/07/29 03:46:25;;;;;;;2.63;1.40;;;19.60;99.90;;;;;;5064851;28;20205;-68
2023/07/29 03:48:50;;;;;;;2.50;1.93;;;19.50;99.90;;;;;;5063504;28;20166;-68
2023/07/29 03:51:16;;;;;;;2.27;1.80;;;19.60;99.90;;;;;;5062037;28;20515;-69
2023/07/29 03:53:41;;;;;;;2.13;1.83;;;19.60;99.90;;;;;;5062009;28;20167;-69
2023/07/29 03:56:08;;;;;;;1.70;1.50;;;19.60;99.90;;;;;;5059511;28;20685;-68
2023/07/29 03:58:33;;;;;;;2.00;1.40;;;19.70;99.90;;;;;;5061792;28;20173;-68
2023/07/29 04:00:59;;;;;;;1.67;1.57;;;19.50;99.90;;;;;;5061795;28;20851;-69
2023/07/29 04:03:24;;;;;;;2.20;1.70;;;19.60;99.90;;;;;;5061726;28;20687;-68
2023/07/29 04:05:50;;;;;;;2.50;1.87;;;19.70;99.90;;;;;;5062419;28;20679;-67
2023/07/29 04:08:15;;;;;;;2.43;1.87;;;19.90;99.90;;;;;;5064970;28;20681;-68
2023/07/29 04:10:41;;;;;;;2.20;1.77;;;19.90;99.90;;;;;;5062251;28;20257;-68
2023/07/29 04:13:07;;;;;;;3.27;2.10;;;19.80;99.90;;;;;;5063053;28;20215;-67
2023/07/29 04:15:32;;;;;;;2.13;1.90;;;19.90;99.90;;;;;;5061857;28;20648;-68
2023/07/29 04:17:58;;;;;;;3.23;2.20;;;19.80;99.90;;;;;;5064264;28;20166;-68
2023/07/29 04:20:23;;;;;;;2.93;1.80;;;19.80;99.90;;;;;;5063395;28;20178;-68
2023/07/29 04:22:49;;;;;;;2.73;1.93;;;19.70;99.90;;;;;;5064536;28;20236;-68
2023/07/29 04:25:14;;;;;;;3.37;2.23;;;19.60;99.90;;;;;;5061532;28;20195;-68
2023/07/29 04:27:40;;;;;;;2.03;1.83;;;19.50;99.90;;;;;;5061430;28;20170;-68
2023/07/29 04:30:06;;;;;;;2.43;2.10;;;19.50;99.90;;;;;;5061644;28;20619;-68
2023/07/29 04:32:32;;;;;;;9.77;2.50;;;19.50;99.90;;;;;;5061718;28;20223;-68
2023/07/29 04:34:57;;;;;;;1.70;1.60;;;19.60;99.90;;;;;;5063393;28;20393;-68
2023/07/29 04:37:23;;;;;;;3.50;2.17;;;19.80;99.90;;;;;;5064090;28;20165;-68
2023/07/29 04:39:49;;;;;;;2.90;1.97;;;19.80;99.90;;;;;;5061598;28;20169;-68
2023/07/29 04:42:15;;;;;;;2.00;1.70;;;19.70;99.90;;;;;;5062685;28;20814;-68
2023/07/29 04:44:41;;;;;;;2.90;2.10;;;19.80;99.90;;;;;;5062121;28;20163;-68
2023/07/29 04:47:07;;;;;;;6.80;2.27;;;19.80;99.90;;;;;;5060413;28;20193;-67
2023/07/29 04:49:33;;;;;;;2.30;2.10;;;19.80;99.90;;;;;;5050405;28;20758;-68
2023/07/29 04:51:58;;;;;;;3.40;1.60;;;19.90;99.90;;;;;;5062572;28;20205;-68
2023/07/29 04:54:24;;;;;;;4.70;1.63;;;19.90;99.90;;;;;;5066797;28;20205;-68
2023/07/29 04:56:49;;;;;;;5.97;2.90;;;19.90;99.90;;;;;;5061020;28;20182;-68
2023/07/29 04:59:15;;;;;;;3.60;2.53;;;20.00;99.90;;;;;;5066228;28;20637;-68
2023/07/29 05:01:42;;;;;;;4.90;2.40;;;20.00;99.90;;;;;;5066285;28;20627;-68
2023/07/29 05:04:08;;;;;;;3.57;2.20;;;19.90;99.90;;;;;;5064467;28;20580;-68
2023/07/29 05:06:34;;;;;;;3.03;2.50;;;19.90;99.90;;;;;;5064068;28;20456;-69
2023/07/29 05:09:12;;;;;;;4.23;2.80;;;19.90;99.90;;;;;;5062361;28;20550;-69
2023/07/29 05:11:38;;;;;;;2.70;2.50;;;19.90;99.90;;;;;;5065874;28;20682;-68
2023/07/29 05:14:06;;;;;;;2.60;2.30;;;19.90;99.90;;;;;;5066456;28;20404;-66
2023/07/29 05:16:31;;;;;;;4.10;3.27;;;19.90;99.90;;;;;;5056229;28;20239;-72
2023/07/29 05:18:57;;;;;;;4.07;2.97;;;19.90;99.90;;;;;;5067018;28;20464;-68
2023/07/29 05:21:22;;;;;;;3.10;2.60;;;19.90;99.90;;;;;;5062414;28;20213;-68
2023/07/29 05:23:48;;;;;;;2.87;2.57;;;20.00;99.90;;;;;;5064645;28;20228;-67
2023/07/29 05:26:13;;;;;;;4.87;2.10;;;20.00;99.90;;;;;;5062863;28;20224;-67
2023/07/29 05:28:39;;;;;;;2.50;2.30;;;19.90;99.90;;;;;;5064035;28;20166;-67
2023/07/29 05:31:05;;;;;;;3.70;2.60;;;20.00;99.90;;;;;;5066055;28;20178;-69
2023/07/29 05:33:30;;;;;;;2.90;2.70;;;19.90;99.90;;;;;;5064535;28;20192;-68
2023/07/29 05:35:56;;;;;;;4.17;2.60;;;19.90;99.90;;;;;;5064169;28;20186;-68
2023/07/29 05:38:21;;;;;;;3.80;2.87;;;20.00;99.90;;;;;;5066172;28;20593;-68
2023/07/29 05:40:48;;;;;;;3.23;2.50;;;20.10;99.90;;;;;;5063161;28;20220;-68
2023/07/29 05:43:14;;;;;;;3.07;2.43;;;19.90;99.90;;;;;;5062333;28;20198;-69
2023/07/29 05:45:40;;;;;;;3.00;2.70;;;19.90;99.90;;;;;;5062500;28;20456;-71
2023/07/29 05:48:05;;;;;;;4.20;2.87;;;19.80;99.90;;;;;;5060584;28;20193;-68
2023/07/29 05:50:31;;;;;;;2.90;2.67;;;19.80;99.90;;;;;;5064514;28;20193;-68
2023/07/29 05:52:57;;;;;;;3.60;2.90;;;20.00;99.90;;;;;;5059076;28;20534;-68
2023/07/29 05:55:22;;;;;;;3.33;2.37;;;20.10;99.90;;;;;;5067616;28;20699;-68
2023/07/29 05:57:48;;;;;;;5.53;2.60;;;20.00;99.90;;;;;;5062878;28;20273;-69
2023/07/29 06:00:13;;;;;;;3.67;2.23;;;20.10;99.90;;;;;;5057576;28;20641;-69
2023/07/29 06:02:40;;;;;;;2.43;2.20;;;20.10;99.90;;;;;;5063923;28;20196;-69
2023/07/29 06:05:07;;;;;;;3.33;2.03;;;20.30;99.90;;;;;;5062505;28;20194;-69
2023/07/29 06:07:33;;;;;;;2.13;1.93;;;20.40;99.90;;;;;;5063573;28;20405;-69
2023/07/29 06:09:59;;;;;;;3.50;2.20;;;20.50;99.90;;;;;;5065429;28;21038;-70
2023/07/29 06:12:25;;;;;;;2.87;2.67;;;20.70;99.90;;;;;;5058745;28;20955;-69
2023/07/29 06:14:51;;;;;;;2.70;2.10;;;20.80;99.90;;;;;;5064870;28;20427;-69
2023/07/29 06:17:16;;;;;;;4.60;2.27;;;20.80;99.90;;;;;;5064208;28;20163;-69
2023/07/29 06:19:42;;;;;;;2.37;1.87;;;20.90;99.90;;;;;;5066847;28;20199;-67
2023/07/29 06:22:07;;;;;;;2.30;2.10;;;21.00;99.90;;;;;;5064665;28;20213;-68
2023/07/29 06:24:33;;;;;;;5.93;2.30;;;21.20;99.90;;;;;;5064335;28;20170;-69
2023/07/29 06:26:58;;;;;;;2.20;2.00;;;21.60;99.90;;;;;;5063900;28;20191;-69
2023/07/29 06:29:24;;;;;;;2.60;2.00;;;21.80;99.90;;;;;;5065163;28;20629;-69
2023/07/29 06:31:51;;;;;;;2.40;1.77;;;22.10;99.90;;;;;;5065681;28;20193;-69
2023/07/29 06:34:17;;;;;;;2.73;1.87;;;22.20;99.90;;;;;;5064426;28;20184;-69
2023/07/29 06:36:42;;;;;;;5.07;1.70;;;22.20;99.90;;;;;;5063723;28;20486;-69
2023/07/29 06:39:08;;;;;;;2.67;2.07;;;22.30;99.90;;;;;;5064896;28;20409;-69
2023/07/29 06:41:34;;;;;;;3.43;2.17;;;22.30;99.90;;;;;;5065928;28;20193;-69
2023/07/29 06:43:59;;;;;;;2.23;2.03;;;22.30;99.90;;;;;;5060122;28;20667;-68
2023/07/29 06:46:25;;;;;;;3.40;1.70;;;22.30;99.90;;;;;;5066105;28;20236;-68
2023/07/29 06:48:51;;;;;;;2.07;1.70;;;22.30;99.90;;;;;;5059207;28;20202;-70
2023/07/29 06:51:16;;;;;;;2.73;1.77;;;22.10;99.90;;;;;;5065819;28;20173;-71
2023/07/29 06:53:42;;;;;;;2.37;2.00;;;22.00;99.90;;;;;;5065718;28;20162;-70
2023/07/29 06:56:07;;;;;;;1.90;1.80;;;22.00;99.90;;;;;;5064544;28;20597;-69
2023/07/29 06:58:34;;;;;;;2.43;1.97;;;22.10;99.90;;;;;;5062235;28;20574;-67
2023/07/29 07:00:59;;;;;;;2.00;1.80;;;21.90;99.90;;;;;;5064195;28;20175;-72
2023/07/29 07:03:25;;;;;;;3.57;1.93;;;21.60;99.90;;;;;;5055867;28;20559;-70
2023/07/29 07:05:51;;;;;;;2.20;2.00;;;21.40;99.90;;;;;;5065045;28;20186;-68
2023/07/29 07:08:16;;;;;;;1.93;1.80;;;21.10;99.90;;;;;;5063103;28;20174;-69
2023/07/29 07:10:42;;;;;;;3.97;2.50;;;20.90;99.90;;;;;;5063948;28;20454;-69
2023/07/29 07:13:07;;;;;;;2.20;2.00;;;20.90;99.90;;;;;;5057929;28;20699;-70
2023/07/29 07:15:33;;;;;;;2.60;2.33;;;20.90;99.90;;;;;;5064784;28;20563;-69
2023/07/29 07:17:59;;;;;;;3.23;2.30;;;20.90;99.90;;;;;;5061955;28;20174;-70
2023/07/29 07:20:24;;;;;;;4.10;2.40;;;20.90;99.90;;;;;;5060061;28;20170;-70
2023/07/29 07:22:50;;;;;;;3.63;2.03;;;20.90;99.90;;;;;;5058146;28;20209;-69
2023/07/29 07:25:16;;;;;;;4.33;2.07;;;20.90;99.90;;;;;;5062070;28;20700;-69
2023/07/29 07:31:03;;;;;;;1.70;1.50;;;20.90;99.90;;;;;;5064469;28;20166;-68
2023/07/29 07:33:29;;;;;;;1.60;1.50;;;20.70;99.90;;;;;;5063309;28;20394;-68
2023/07/29 07:35:54;;;;;;;1.77;1.60;;;20.90;99.90;;;;;;5064681;28;20180;-68
2023/07/29 07:38:20;;;;;;;2.43;1.80;;;21.10;99.90;;;;;;5062990;28;20166;-66
2023/07/29 07:40:56;;;;;;;3.03;1.90;;;21.20;99.90;;;;;;5063395;28;20274;-68
2023/07/29 07:43:22;;;;;;;3.50;2.00;;;21.20;99.90;;;;;;5065020;28;20214;-68
2023/07/29 07:45:47;;;;;;;4.20;2.27;;;21.10;99.90;;;;;;5062476;28;20528;-68
2023/07/29 07:48:13;;;;;;;4.10;2.10;;;21.20;99.90;;;;;;5062441;28;20170;-69
2023/07/29 07:50:39;;;;;;;2.07;1.87;;;21.20;99.90;;;;;;5062874;28;20162;-69
2023/07/29 07:53:05;;;;;;;2.17;1.93;;;21.30;99.90;;;;;;5065364;28;20178;-69
2023/07/29 07:55:30;;;;;;;3.70;2.40;;;21.40;99.90;;;;;;5061760;28;20451;-69
2023/07/29 07:57:56;;;;;;;1.83;1.57;;;21.50;99.90;;;;;;5059523;28;20225;-69
2023/07/29 08:00:21;;;;;;;2.57;2.37;;;21.60;99.90;;;;;;5063774;28;20176;-69
2023/07/29 08:02:47;;;;;;;3.07;1.93;;;21.50;99.90;;;;;;5063060;28;20722;-69
2023/07/29 08:05:13;;;;;;;2.73;2.23;;;21.60;99.90;;;;;;5061953;28;20278;-69
2023/07/29 08:07:38;;;;;;;1.73;1.40;;;21.50;99.90;;;;;;5062630;28;20657;-68
2023/07/29 08:10:04;;;;;;;2.90;1.57;;;21.60;99.90;;;;;;5064986;28;20292;-69
2023/07/29 08:12:30;;;;;;;3.20;1.90;;;21.80;99.90;;;;;;5057377;28;20186;-69
2023/07/29 08:14:55;;;;;;;4.13;1.40;;;21.80;99.90;;;;;;5062082;28;20403;-68
2023/07/29 08:17:21;;;;;;;3.47;1.93;;;21.70;99.90;;;;;;5061844;28;20638;-70
2023/07/29 08:19:47;;;;;;;2.00;1.53;;;21.80;99.90;;;;;;5064558;28;20162;-68
2023/07/29 08:22:12;;;;;;;1.60;1.30;;;22.00;99.90;;;;;;5062435;28;20209;-68
2023/07/29 08:24:38;;;;;;;2.97;1.47;;;22.10;99.90;;;;;;5061814;28;20281;-69
2023/07/29 08:27:03;;;;;;;3.60;1.83;;;22.20;99.90;;;;;;5061492;28;20210;-68
2023/07/29 08:29:29;;;;;;;1.60;1.40;;;22.40;99.90;;;;;;5058247;28;20166;-69
2023/07/29 08:31:55;;;;;;;1.97;1.80;;;22.30;99.90;;;;;;5061789;28;20236;-68
2023/07/29 08:34:20;;;;;;;2.17;1.80;;;22.60;99.90;;;;;;5062485;28;20171;-68
2023/07/29 08:36:46;;;;;;;2.17;1.90;;;22.70;99.90;;;;;;5063796;28;20409;-69
2023/07/29 08:39:12;;;;;;;1.90;1.70;;;22.80;99.90;;;;;;5063515;28;20545;-69
2023/07/29 08:41:57;;;;;;;2.50;1.60;;;22.80;99.90;;;;;;5061286;28;20194;-68
2023/07/29 08:44:26;;;;;;;3.40;1.50;;;23.00;99.90;;;;;;5063398;28;20201;-68
2023/07/29 08:46:53;;;;;;;1.80;1.30;;;23.10;99.90;;;;;;5061332;28;20445;-69
2023/07/29 08:49:19;;;;;;;1.70;1.37;;;23.20;99.90;;;;;;5064289;28;20899;-69
2023/07/29 08:51:48;;;;;;;2.27;1.57;;;23.20;99.90;;;;;;5061967;28;20423;-69
2023/07/29 08:54:14;;;;;;;2.23;2.00;;;23.40;99.90;;;;;;5064176;28;20191;-69
2023/07/29 08:56:41;;;;;;;1.77;1.53;;;23.40;99.90;;;;;;5061181;28;20446;-68
2023/07/29 08:59:11;;;;;;;2.63;1.43;;;23.70;99.90;;;;;;5051579;28;20412;-68
2023/07/29 09:01:38;;;;;;;1.40;1.30;;;23.90;99.90;;;;;;5061784;28;20428;-69
2023/07/29 09:04:04;;;;;;;1.93;1.73;;;23.80;99.90;;;;;;5062447;28;20404;-68
2023/07/29 09:06:31;;;;;;;1.70;1.60;;;24.20;99.90;;;;;;5060879;28;20437;-68
2023/07/29 09:08:58;;;;;;;1.73;1.33;;;24.60;99.90;;;;;;5056822;28;20401;-68
2023/07/29 09:11:23;;;;;;;2.70;1.47;;;24.20;99.90;;;;;;5060552;28;21021;-69
2023/07/29 09:13:49;;;;;;;2.83;1.50;;;24.30;99.90;;;;;;5061006;28;20487;-69
2023/07/29 09:16:15;;;;;;;2.97;1.60;;;24.40;99.90;;;;;;5061086;28;20435;-71
2023/07/29 09:18:40;;;;;;;1.53;1.43;;;24.80;99.90;;;;;;5062794;28;20206;-70
2023/07/29 09:21:06;;;;;;;2.93;1.67;;;24.90;99.90;;;;;;5062677;28;20178;-70
2023/07/29 09:23:42;;;;;;;1.70;1.30;;;25.00;99.90;;;;;;5061695;28;20252;-70
2023/07/29 09:26:08;;;;;;;1.80;1.23;;;25.00;99.90;;;;;;5057326;28;20205;-70
2023/07/29 09:28:35;;;;;;;4.30;2.10;;;25.30;99.90;;;;;;5056426;28;20801;-70
2023/07/29 09:31:01;;;;;;;2.20;1.93;;;25.10;99.90;;;;;;5062177;28;20186;-70
2023/07/29 09:33:28;;;;;;;1.70;1.40;;;25.10;99.90;;;;;;5060311;28;20410;-70
2023/07/29 09:35:53;;;;;;;2.17;1.70;;;25.50;99.90;;;;;;5061975;28;20444;-70
2023/07/29 09:38:27;;;;;;;2.13;1.30;;;25.60;99.90;;;;;;5065079;28;20779;-70
2023/07/29 09:40:56;;;;;;;1.90;1.50;;;25.10;99.90;;;;;;5065589;28;20573;-69
2023/07/29 09:43:26;;;;;;;1.90;1.67;;;25.10;99.90;;;;;;5067784;28;20412;-70
2023/07/29 09:45:52;;;;;;;1.97;1.50;;;25.00;99.90;;;;;;5064284;28;20524;-70
2023/07/29 09:48:22;;;;;;;4.00;2.00;;;25.00;99.90;;;;;;5066906;28;20895;-69
2023/07/29 09:50:48;;;;;;;3.83;1.80;;;24.90;99.90;;;;;;5064542;28;20416;-69
2023/07/29 09:53:14;;;;;;;1.97;1.60;;;24.60;99.90;;;;;;5066543;28;20467;-69
2023/07/29 09:55:45;;;;;;;1.90;1.60;;;24.70;99.90;;;;;;5064103;28;20254;-69
2023/07/29 09:58:11;;;;;;;2.00;1.23;;;24.90;99.90;;;;;;5057829;28;20419;-69
2023/07/29 10:00:38;;;;;;;2.53;1.80;;;24.90;99.90;;;;;;5064449;28;20923;-70
2023/07/29 10:03:05;;;;;;;1.70;1.60;;;24.80;99.90;;;;;;5064921;28;20266;-69
2023/07/29 10:05:32;;;;;;;3.97;1.80;;;25.00;99.90;;;;;;5063909;28;20492;-69
2023/07/29 10:07:58;;;;;;;2.37;1.97;;;24.80;99.90;;;;;;5059798;28;20421;-69
2023/07/29 10:10:24;;;;;;;2.20;2.00;;;24.80;99.90;;;;;;5065659;28;20413;-69
2023/07/29 10:12:50;;;;;;;2.63;1.60;;;25.00;99.90;;;;;;5066201;28;20957;-70
2023/07/29 10:15:15;;;;;;;2.07;1.57;;;25.20;99.90;;;;;;5066339;28;20184;-69
2023/07/29 10:17:41;;;;;;;2.10;1.90;;;25.20;99.90;;;;;;5064304;28;20482;-70
2023/07/29 10:20:11;;;;;;;3.00;1.93;;;25.40;99.90;;;;;;5064447;28;20174;-69
2023/07/29 10:22:41;;;;;;;2.27;1.67;;;25.50;99.90;;;;;;5066406;28;20292;-69
2023/07/29 10:25:18;;;;;;;2.40;1.77;;;25.60;99.90;;;;;;5064056;28;20404;-69
2023/07/29 10:27:49;;;;;;;1.50;1.23;;;26.10;99.90;;;;;;5058621;28;20389;-69
2023/07/29 10:30:14;;;;;;;2.90;2.00;;;26.10;99.90;;;;;;5066197;28;20481;-70
2023/07/29 10:32:45;;;;;;;2.30;1.70;;;26.30;99.90;;;;;;5064205;28;20499;-69
2023/07/29 10:35:15;;;;;;;1.77;1.67;;;26.50;99.90;;;;;;5064431;28;20162;-70
2023/07/29 10:37:41;;;;;;;1.77;1.33;;;26.10;99.90;;;;;;5063477;28;20390;-70
2023/07/29 10:40:09;;;;;;;3.03;2.73;;;25.80;99.90;;;;;;5066310;28;20557;-69
2023/07/29 10:42:35;;;;;;;1.90;1.50;;;26.00;99.90;;;;;;5063601;28;20412;-70
2023/07/29 10:45:16;;;;;;;1.63;1.53;;;25.90;99.90;;;;;;5063410;28;20396;-70
2023/07/29 10:47:42;;;;;;;3.97;2.03;;;25.90;99.90;;;;;;5062609;28;20495;-69
2023/07/29 10:50:20;;;;;;;1.97;1.77;;;25.60;99.90;;;;;;5058376;28;20906;-68
2023/07/29 10:52:52;;;;;;;1.60;1.40;;;25.80;99.90;;;;;;5063906;28;20616;-69
2023/07/29 10:55:26;;;;;;;3.97;1.60;;;25.50;99.90;;;;;;5058090;28;20418;-70
2023/07/29 10:57:52;;;;;;;1.47;1.17;;;25.50;99.90;;;;;;5065450;28;20894;-70
2023/07/29 11:00:21;;;;;;;2.07;1.70;;;25.70;99.90;;;;;;5062274;28;20429;-69
2023/07/29 11:03:01;;;;;;;2.70;1.40;;;25.90;99.90;;;;;;5061227;28;20456;-70
2023/07/29 11:05:26;;;;;;;2.17;1.40;;;25.80;99.90;;;;;;5058139;28;20535;-70
2023/07/29 11:07:52;;;;;;;1.87;1.60;;;26.00;99.90;;;;;;5058781;28;20910;-70
2023/07/29 11:10:17;;;;;;;2.20;1.70;;;26.40;99.90;;;;;;5058232;28;20170;-70
2023/07/29 11:12:50;;;;;;;2.77;1.50;;;26.40;99.90;;;;;;5065537;28;20182;-70
2023/07/29 11:15:21;;;;;;;2.03;1.83;;;26.50;99.90;;;;;;5065000;28;20170;-69
2023/07/29 11:17:58;;;;;;;1.50;1.40;;;26.60;99.90;;;;;;5063353;28;20439;-70
2023/07/29 11:20:31;;;;;;;1.47;1.37;;;26.70;99.90;;;;;;5065504;28;20404;-70
2023/07/29 11:22:59;;;;;;;3.60;2.17;;;26.60;99.90;;;;;;5062460;28;20525;-69
2023/07/29 11:25:28;;;;;;;2.07;1.87;;;26.50;99.90;;;;;;5062156;28;20449;-70
2023/07/29 11:27:56;;;;;;;2.20;1.60;;;26.70;99.90;;;;;;5064878;28;20416;-70
2023/07/29 11:30:29;;;;;;;1.40;1.30;;;26.80;99.90;;;;;;5062412;28;20405;-71
2023/07/29 11:32:55;;;;;;;1.50;1.37;;;26.70;99.90;;;;;;5061426;28;20420;-70
2023/07/29 11:35:21;;;;;;;3.90;2.00;;;26.30;99.90;;;;;;5064587;28;20409;-70
2023/07/29 11:37:48;;;;;;;1.93;1.63;;;26.20;99.90;;;;;;5063126;28;20420;-69
2023/07/29 11:40:19;;;;;;;2.40;1.90;;;26.20;99.90;;;;;;5058561;28;20175;-71
2023/07/29 11:42:46;;;;;;;1.77;1.67;;;26.60;99.90;;;;;;5058517;28;20417;-69
2023/07/29 11:45:13;;;;;;;2.33;1.50;;;26.60;99.90;;;;;;5063214;28;20416;-69
2023/07/29 11:47:38;;;;;;;1.77;1.67;;;26.70;99.90;;;;;;5063320;28;20979;-70
2023/07/29 11:50:07;;;;;;;2.07;1.80;;;26.50;99.90;;;;;;5065264;28;20444;-71
2023/07/29 11:52:37;;;;;;;2.50;2.00;;;26.50;99.90;;;;;;5058255;28;20261;-73
2023/07/29 11:55:04;;;;;;;2.00;1.73;;;26.50;99.90;;;;;;5064352;28;20915;-69
2023/07/29 11:57:31;;;;;;;2.23;2.03;;;27.00;99.90;;;;;;5063273;28;20401;-72
2023/07/29 11:59:57;;;;;;;3.80;1.50;;;27.90;99.90;;;;;;5058573;28;20421;-71
2023/07/29 12:02:25;;;;;;;2.67;1.93;;;29.00;99.90;;;;;;5057863;28;20451;-71
2023/07/29 12:04:52;;;;;;;2.20;2.00;;;29.70;99.90;;;;;;5065643;28;20396;-70
2023/07/29 12:07:18;;;;;;;1.70;1.60;;;29.70;99.90;;;;;;5064968;28;20444;-70
2023/07/29 12:09:45;;;;;;;1.50;1.40;;;29.10;99.90;;;;;;5062030;28;20401;-70
2023/07/29 12:12:11;;;;;;;4.83;1.47;;;29.10;99.90;;;;;;5064957;28;20882;-71
2023/07/29 12:14:37;;;;;;;1.90;1.70;;;29.20;99.90;;;;;;5061478;28;20410;-71
2023/07/29 12:17:06;;;;;;;2.23;1.67;;;29.00;99.90;;;;;;5064498;28;20266;-71
2023/07/29 12:19:38;;;;;;;3.47;2.10;;;29.90;99.90;;;;;;5061943;28;20181;-71
2023/07/29 12:22:05;;;;;;;3.10;1.77;;;29.50;99.90;;;;;;5057542;28;20465;-71
2023/07/29 12:24:33;;;;;;;2.73;2.00;;;29.00;99.90;;;;;;5063284;28;20420;-71
2023/07/29 12:26:59;;;;;;;1.43;1.33;;;28.60;99.90;;;;;;5062857;28;20457;-72
2023/07/29 12:29:25;;;;;;;2.90;1.80;;;28.40;99.90;;;;;;5062511;28;20477;-71
2023/07/29 12:31:59;;;;;;;1.60;1.50;;;29.30;99.90;;;;;;5061565;28;20431;-71
2023/07/29 12:34:29;;;;;;;2.47;1.90;;;30.40;99.90;;;;;;5061612;28;20181;-70
2023/07/29 12:36:56;;;;;;;1.80;1.70;;;31.50;97.70;;;;;;5063093;28;20888;-71
2023/07/29 12:39:29;;;;;;;2.47;1.90;;;32.70;95.60;;;;;;5063436;28;20928;-70
2023/07/29 12:41:57;;;;;;;2.77;2.10;;;32.40;93.40;;;;;;5061647;28;20431;-70
2023/07/29 12:44:24;;;;;;;2.10;1.90;;;31.30;93.60;;;;;;5061664;28;20501;-68
2023/07/29 12:46:49;;;;;;;2.33;1.93;;;31.90;93.50;;;;;;5063875;28;20445;-71
2023/07/29 12:49:15;;;;;;;2.27;2.07;;;31.90;92.20;;;;;;5063048;28;20772;-70